Time;durP1;ratioP1;P1;durP2;ratioP2;P2;SDS_P1;SDS_P2;PMS_P1;PMS_P2;Temp;Humidity;BMP_temperature;BMP_pressure;BME280_temperature;BME280_humidity;BME280_pressure;Samples;Min_cycle;Max_cycle;Signal;HPM_P1;HPM_P2
2021/03/29 00:00:30;;;;;;;;;;;21.00;99.90;;;;;;4935544;29;20300;-80
2021/03/29 00:02:58;;;;;;;;;;;21.00;99.90;;;;;;4954254;29;19926;-82
2021/03/29 00:05:25;;;;;;;;;;;21.00;99.90;;;;;;4944088;29;19914;-81
2021/03/29 00:08:16;;;;;;;;;;;21.00;99.90;;;;;;4948915;29;20377;-79
2021/03/29 00:10:44;;;;;;;;;;;21.00;99.90;;;;;;4938980;29;19915;-80
2021/03/29 00:13:14;;;;;;;;;;;21.10;99.90;;;;;;4954122;29;20051;-77
2021/03/29 00:15:46;;;;;;;;;;;21.10;99.90;;;;;;4935851;29;20270;-81
2021/03/29 00:18:13;;;;;;;;;;;21.20;99.90;;;;;;4954762;28;19930;-82
2021/03/29 00:20:45;;;;;;;;;;;21.10;99.90;;;;;;4946293;29;19925;-79
2021/03/29 00:23:12;;;;;;;;;;;21.10;99.90;;;;;;4954159;29;19914;-79
2021/03/29 00:25:39;;;;;;;;;;;21.20;99.90;;;;;;4956837;28;19919;-82
2021/03/29 00:28:10;;;;;;;;;;;21.40;99.90;;;;;;4936482;29;19915;-77
2021/03/29 00:30:38;;;;;;;;;;;21.40;99.90;;;;;;4940045;29;19918;-79
2021/03/29 00:33:06;;;;;;;;;;;21.40;99.90;;;;;;4957227;29;20021;-83
2021/03/29 00:35:34;;;;;;;;;;;21.60;99.90;;;;;;4955081;28;19914;-81
2021/03/29 00:38:02;;;;;;;;;;;21.60;99.90;;;;;;4957845;29;19915;-81
2021/03/29 00:40:29;;;;;;;;;;;21.70;99.90;;;;;;4935856;29;19926;-82
2021/03/29 00:43:06;;;;;;;;;;;21.70;99.90;;;;;;4950038;29;19958;-84
2021/03/29 00:45:33;;;;;;;;;;;21.70;99.90;;;;;;4935229;29;19981;-80
2021/03/29 00:48:01;;;;;;;;;;;21.70;99.90;;;;;;4940836;29;19965;-82
2021/03/29 00:50:46;;;;;;;;;;;21.90;99.90;;;;;;4934687;29;20353;-77
2021/03/29 00:53:18;;;;;;;;;;;21.90;99.90;;;;;;4936442;28;19930;-82
2021/03/29 00:55:46;;;;;;;;;;;22.10;99.60;;;;;;4919977;29;19919;-78
2021/03/29 00:58:15;;;;;;;;;;;22.10;99.80;;;;;;4942997;28;19915;-79
2021/03/29 01:00:47;;;;;;;;;;;22.10;99.30;;;;;;4937966;29;19946;-83
2021/03/29 01:03:17;;;;;;;;;;;22.10;99.40;;;;;;4948681;29;20416;-79
2021/03/29 01:05:46;;;;;;;;;;;22.10;99.40;;;;;;4952842;29;20420;-78
2021/03/29 01:08:14;;;;;;;;;;;22.20;98.90;;;;;;4953157;29;20329;-84
2021/03/29 01:10:56;;;;;;;;;;;;;;;;;;;;;
2021/03/29 01:13:37;;;;;;;;;;;22.40;98.80;;;;;;4904178;29;19919;-83
2021/03/29 01:16:05;;;;;;;;;;;22.60;97.40;;;;;;4923227;29;19922;-80
2021/03/29 01:18:33;;;;;;;;;;;23.10;95.70;;;;;;4924487;29;19984;-81
2021/03/29 01:21:23;;;;;;;;;;;23.30;95.40;;;;;;4935618;29;19930;-82
2021/03/29 01:23:51;;;;;;;;;;;23.50;96.20;;;;;;4932869;29;19919;-83
2021/03/29 01:26:33;;;;;;;;;;;23.60;95.00;;;;;;4947560;29;19928;-83
2021/03/29 01:29:01;;;;;;;;;;;23.50;94.50;;;;;;4948221;29;20369;-81
2021/03/29 01:31:28;;;;;;;;;;;23.20;94.50;;;;;;4954558;29;20017;-80
2021/03/29 01:33:56;;;;;;;;;;;22.80;94.50;;;;;;4944356;29;19921;-81
2021/03/29 01:36:24;;;;;;;;;;;22.70;95.40;;;;;;4941457;29;19993;-83
2021/03/29 01:38:51;;;;;;;;;;;22.50;93.90;;;;;;4921129;29;19923;-80
2021/03/29 01:41:18;;;;;;;;;;;22.40;94.50;;;;;;4940912;29;20009;-80
2021/03/29 01:43:47;;;;;;;;;;;22.40;95.30;;;;;;4942925;29;19914;-78
2021/03/29 01:46:14;;;;;;;;;;;22.40;94.40;;;;;;4937431;29;20287;-81
2021/03/29 01:48:41;;;;;;;;;;;22.30;93.20;;;;;;4950840;29;19922;-80
2021/03/29 01:51:09;;;;;;;;;;;22.30;92.70;;;;;;4954090;29;20280;-83
2021/03/29 01:53:36;;;;;;;;;;;22.40;94.20;;;;;;4953556;29;20006;-85
2021/03/29 01:56:03;;;;;;;;;;;22.50;94.00;;;;;;4954401;29;19919;-82
2021/03/29 01:58:33;;;;;;;;;;;22.60;93.20;;;;;;4961330;28;19922;-81
2021/03/29 02:01:01;;;;;;;;;;;22.60;94.50;;;;;;4954582;28;19915;-78
2021/03/29 02:03:28;;;;;;;;;;;22.70;98.30;;;;;;4938199;29;20357;-83
2021/03/29 02:05:55;;;;;;;;;;;22.60;99.90;;;;;;4955743;29;19918;-81
2021/03/29 02:08:24;;;;;;;;;;;22.50;99.90;;;;;;4954582;29;19957;-79
2021/03/29 02:10:51;;;;;;;;;;;22.30;99.90;;;;;;4937683;29;19978;-80
2021/03/29 02:13:20;;;;;;;;;;;22.20;99.90;;;;;;4953881;29;19926;-79
2021/03/29 02:15:52;;;;;;;;;;;22.10;99.90;;;;;;4934900;29;20561;-80
2021/03/29 02:18:25;;;;;;;;;;;22.00;99.90;;;;;;4944209;29;20017;-83
2021/03/29 02:20:52;;;;;;;;;;;22.00;99.90;;;;;;4954441;28;19921;-83
2021/03/29 02:23:20;;;;;;;;;;;22.00;99.90;;;;;;4936048;29;19918;-81
2021/03/29 02:25:47;;;;;;;;;;;22.00;99.90;;;;;;4960327;28;19938;-80
2021/03/29 02:28:15;;;;;;;;;;;22.00;99.90;;;;;;4959081;29;19923;-77
2021/03/29 02:30:46;;;;;;;;;;;22.00;99.90;;;;;;4960544;29;19915;-81
2021/03/29 02:33:17;;;;;;;;;;;22.10;99.90;;;;;;4956856;29;19927;-80
2021/03/29 02:35:44;;;;;;;;;;;22.10;99.90;;;;;;4950646;29;20457;-79
2021/03/29 02:38:13;;;;;;;;;;;22.20;99.90;;;;;;4954240;29;19917;-78
2021/03/29 02:40:50;;;;;;;;;;;22.10;99.90;;;;;;4955043;29;19914;-79
2021/03/29 02:43:17;;;;;;;;;;;22.20;99.90;;;;;;4961542;29;19918;-78
2021/03/29 02:45:47;;;;;;;;;;;22.20;99.90;;;;;;4940534;29;20437;-83
2021/03/29 02:48:23;;;;;;;;;;;22.20;99.90;;;;;;4942594;28;20025;-80
2021/03/29 02:50:59;;;;;;;;;;;22.10;99.90;;;;;;4953733;29;19925;-82
2021/03/29 02:53:31;;;;;;;;;;;22.10;99.90;;;;;;4952951;29;19957;-79
2021/03/29 02:56:03;;;;;;;;;;;22.00;99.90;;;;;;4953520;29;19914;-82
2021/03/29 02:58:32;;;;;;;;;;;22.00;99.90;;;;;;4953768;28;19938;-81
2021/03/29 03:01:00;;;;;;;;;;;22.00;99.90;;;;;;4953994;29;19954;-80
2021/03/29 03:03:28;;;;;;;;;;;22.00;99.90;;;;;;4953160;29;19918;-84
2021/03/29 03:05:55;;;;;;;;;;;22.20;99.90;;;;;;4954953;29;19965;-82
2021/03/29 03:08:22;;;;;;;;;;;22.40;99.90;;;;;;4933750;29;19941;-81
2021/03/29 03:10:49;;;;;;;;;;;22.50;99.90;;;;;;4935457;29;20012;-79
2021/03/29 03:13:16;;;;;;;;;;;22.40;99.90;;;;;;4960116;28;20017;-81
2021/03/29 03:15:43;;;;;;;;;;;22.50;99.90;;;;;;4972056;28;19918;-79
2021/03/29 03:18:11;;;;;;;;;;;22.40;99.90;;;;;;4954074;29;19928;-79
2021/03/29 03:20:38;;;;;;;;;;;22.50;99.90;;;;;;4953275;29;19918;-82
2021/03/29 03:23:18;;;;;;;;;;;22.50;99.90;;;;;;4951513;29;19933;-79
2021/03/29 03:25:49;;;;;;;;;;;22.50;99.90;;;;;;4919750;29;19915;-83
2021/03/29 03:28:17;;;;;;;;;;;22.50;99.90;;;;;;4951721;29;19915;-79
2021/03/29 03:30:45;;;;;;;;;;;22.30;99.90;;;;;;4953823;29;20002;-81
2021/03/29 03:33:12;;;;;;;;;;;22.20;99.90;;;;;;4936585;29;19977;-84
2021/03/29 03:35:40;;;;;;;;;;;22.00;99.90;;;;;;4952946;29;19918;-83
2021/03/29 03:38:12;;;;;;;;;;;21.90;99.90;;;;;;4963242;29;19970;-77
2021/03/29 03:40:40;;;;;;;;;;;21.80;99.90;;;;;;4959135;29;19914;-81
2021/03/29 03:43:07;;;;;;;;;;;21.90;99.90;;;;;;4952386;29;20334;-83
2021/03/29 03:45:39;;;;;;;;;;;22.10;99.90;;;;;;4954032;29;19914;-83
2021/03/29 03:48:07;;;;;;;;;;;22.10;99.90;;;;;;4934044;29;19915;-82
2021/03/29 03:50:34;;;;;;;;;;;22.10;99.90;;;;;;4919626;29;19919;-84
2021/03/29 03:53:01;;;;;;;;;;;22.10;99.90;;;;;;4954124;29;19923;-85
2021/03/29 03:55:28;;;;;;;;;;;22.00;99.90;;;;;;4936142;29;19914;-83
2021/03/29 03:57:59;;;;;;;;;;;22.00;99.90;;;;;;4953870;29;20385;-81
2021/03/29 04:00:26;;;;;;;;;;;22.10;99.90;;;;;;4954191;29;20012;-80
2021/03/29 04:02:55;;;;;;;;;;;22.20;99.90;;;;;;4954253;29;19914;-80
2021/03/29 04:05:23;;;;;;;;;;;22.40;99.90;;;;;;4933779;29;20001;-81
2021/03/29 04:07:51;;;;;;;;;;;22.60;99.90;;;;;;4933137;29;19915;-82
2021/03/29 04:10:21;;;;;;;;;;;22.50;99.90;;;;;;4933258;29;19918;-80
2021/03/29 04:12:55;;;;;;;;;;;22.50;99.90;;;;;;4950345;29;19923;-80
2021/03/29 04:15:22;;;;;;;;;;;22.60;99.90;;;;;;4938684;29;19914;-80
2021/03/29 04:17:49;;;;;;;;;;;22.80;99.90;;;;;;4956804;29;19970;-81
2021/03/29 04:20:16;;;;;;;;;;;23.00;99.90;;;;;;4951892;29;19952;-81
2021/03/29 04:22:43;;;;;;;;;;;23.20;99.90;;;;;;4954598;29;19915;-81
2021/03/29 04:25:13;;;;;;;;;;;23.10;99.90;;;;;;4940189;29;20337;-80
2021/03/29 04:27:40;;;;;;;;;;;23.10;99.90;;;;;;4956433;29;19929;-78
2021/03/29 04:30:08;;;;;;;;;;;22.90;99.90;;;;;;4957591;29;20357;-82
2021/03/29 04:32:36;;;;;;;;;;;22.80;99.90;;;;;;4956191;29;19951;-83
2021/03/29 04:35:03;;;;;;;;;;;22.60;99.90;;;;;;4944619;29;20189;-78
2021/03/29 04:37:30;;;;;;;;;;;22.50;99.90;;;;;;4954013;29;19915;-80
2021/03/29 04:39:56;;;;;;;;;;;22.50;99.90;;;;;;4956965;29;19918;-81
2021/03/29 04:42:24;;;;;;;;;;;22.60;99.90;;;;;;4955906;29;19914;-80
2021/03/29 04:44:52;;;;;;;;;;;22.60;99.90;;;;;;4954717;29;20014;-80
2021/03/29 04:47:19;;;;;;;;;;;22.60;99.90;;;;;;4956072;29;19973;-77
2021/03/29 04:49:46;;;;;;;;;;;22.50;99.90;;;;;;4939601;29;19961;-79
2021/03/29 04:52:12;;;;;;;;;;;22.50;99.90;;;;;;4937088;29;20274;-83
2021/03/29 04:54:39;;;;;;;;;;;22.50;99.90;;;;;;4956039;29;19938;-85
2021/03/29 04:57:06;;;;;;;;;;;22.60;99.90;;;;;;4955978;29;19973;-78
2021/03/29 04:59:33;;;;;;;;;;;22.60;99.90;;;;;;4938380;29;19918;-78
2021/03/29 05:01:59;;;;;;;;;;;22.60;99.90;;;;;;4956326;29;20257;-82
2021/03/29 05:04:29;;;;;;;;;;;22.60;99.90;;;;;;4954783;29;19926;-81
2021/03/29 05:06:57;;;;;;;;;;;22.60;99.90;;;;;;4956115;29;20285;-84
2021/03/29 05:09:24;;;;;;;;;;;22.50;99.90;;;;;;4948309;29;20024;-79
2021/03/29 05:11:53;;;;;;;;;;;22.40;99.90;;;;;;4965518;29;19945;-78
2021/03/29 05:14:20;;;;;;;;;;;22.50;99.90;;;;;;4955932;29;19919;-78
2021/03/29 05:16:47;;;;;;;;;;;22.50;99.90;;;;;;4937609;29;19950;-81
2021/03/29 05:19:14;;;;;;;;;;;22.30;99.50;;;;;;4954539;29;19910;-78
2021/03/29 05:21:41;;;;;;;;;;;22.30;99.40;;;;;;4954039;28;20436;-79
2021/03/29 05:24:08;;;;;;;;;;;22.30;99.40;;;;;;4955377;28;19961;-79
2021/03/29 05:26:35;;;;;;;;;;;22.30;99.10;;;;;;4956200;29;19910;-78
2021/03/29 05:29:05;;;;;;;;;;;22.30;98.90;;;;;;4938977;29;19915;-78
2021/03/29 05:31:39;;;;;;;;;;;22.40;98.40;;;;;;4955714;29;20285;-78
2021/03/29 05:34:06;;;;;;;;;;;22.40;98.20;;;;;;4953224;29;20001;-82
2021/03/29 05:36:33;;;;;;;;;;;22.40;98.10;;;;;;4935637;29;19914;-82
2021/03/29 05:39:01;;;;;;;;;;;22.20;97.60;;;;;;4938651;29;19950;-81
2021/03/29 05:41:28;;;;;;;;;;;22.30;97.70;;;;;;4953989;29;19914;-81
2021/03/29 05:43:54;;;;;;;;;;;22.30;97.40;;;;;;4954939;28;19933;-78
2021/03/29 05:46:21;;;;;;;;;;;22.30;97.10;;;;;;4955873;28;19918;-81
2021/03/29 05:48:48;;;;;;;;;;;22.30;97.20;;;;;;4955377;29;20392;-81
2021/03/29 05:51:29;;;;;;;;;;;22.20;97.30;;;;;;4955583;29;20042;-79
2021/03/29 05:54:13;;;;;;;;;;;22.20;97.80;;;;;;4952577;29;19955;-79
2021/03/29 05:56:41;;;;;;;;;;;22.30;97.20;;;;;;4939831;29;19914;-80
2021/03/29 05:59:15;;;;;;;;;;;22.30;97.00;;;;;;4955112;29;20355;-82
2021/03/29 06:01:44;;;;;;;;;;;22.30;96.90;;;;;;4944091;29;19914;-80
2021/03/29 06:04:11;;;;;;;;;;;22.20;96.40;;;;;;4955484;29;19922;-78
2021/03/29 06:06:39;;;;;;;;;;;22.20;96.50;;;;;;4950322;29;19915;-80
2021/03/29 06:09:06;;;;;;;;;;;22.30;96.70;;;;;;4955869;29;19917;-83
2021/03/29 06:11:34;;;;;;;;;;;22.30;96.60;;;;;;4954269;29;20013;-83
2021/03/29 06:14:07;;;;;;;;;;;22.20;95.70;;;;;;4955559;29;19910;-82
2021/03/29 06:16:53;;;;;;;;;;;22.10;96.80;;;;;;4955967;29;19922;-82
2021/03/29 06:19:35;;;;;;;;;;;22.30;96.30;;;;;;4954060;29;19918;-82
2021/03/29 06:22:23;;;;;;;;;;;22.20;96.20;;;;;;4949425;29;20393;-81
2021/03/29 06:24:54;;;;;;;;;;;22.20;96.60;;;;;;4955155;29;20005;-83
2021/03/29 06:27:21;;;;;;;;;;;22.20;96.20;;;;;;4956536;29;19914;-81
2021/03/29 06:29:50;;;;;;;;;;;22.10;96.20;;;;;;4938170;29;19919;-83
2021/03/29 06:32:23;;;;;;;;;;;22.10;96.60;;;;;;4954645;29;19942;-82
2021/03/29 06:34:49;;;;;;;;;;;22.00;96.60;;;;;;4953545;28;19921;-81
2021/03/29 06:37:19;;;;;;;;;;;22.10;96.40;;;;;;4951393;29;19917;-80
2021/03/29 06:39:52;;;;;;;;;;;22.10;96.70;;;;;;4952548;29;20017;-81
2021/03/29 06:42:33;;;;;;;;;;;22.00;97.00;;;;;;4937640;29;19925;-79
2021/03/29 06:45:22;;;;;;;;;;;22.00;96.90;;;;;;4952398;29;19918;-80
2021/03/29 06:47:49;;;;;;;;;;;22.10;97.20;;;;;;4933520;29;19915;-81
2021/03/29 06:50:23;;;;;;;;;;;22.00;96.90;;;;;;4933923;29;19922;-83
2021/03/29 06:52:50;;;;;;;;;;;21.90;96.90;;;;;;4941809;29;20009;-80
2021/03/29 06:55:23;;;;;;;;;;;21.90;96.70;;;;;;4930455;29;19923;-81
2021/03/29 06:58:03;;;;;;;;;;;21.90;96.60;;;;;;4950659;29;20101;-81
2021/03/29 07:00:34;;;;;;;;;;;21.80;97.00;;;;;;4950209;29;19922;-83
2021/03/29 07:03:09;;;;;;;;;;;21.80;97.20;;;;;;4950429;29;19973;-82
2021/03/29 07:05:37;;;;;;;;;;;21.70;97.00;;;;;;4951509;29;20001;-79
2021/03/29 07:08:07;;;;;;;;;;;21.70;97.60;;;;;;4949668;29;20467;-80
2021/03/29 07:10:35;;;;;;;;;;;21.70;97.80;;;;;;4950806;29;19911;-80
2021/03/29 07:13:04;;;;;;;;;;;21.60;97.80;;;;;;4943575;29;20350;-82
2021/03/29 07:15:34;;;;;;;;;;;21.60;98.20;;;;;;4950263;29;20417;-81
2021/03/29 07:18:06;;;;;;;;;;;21.60;98.20;;;;;;4950587;29;19927;-80
2021/03/29 07:20:35;;;;;;;;;;;21.50;97.70;;;;;;4933841;29;20357;-79
2021/03/29 07:23:03;;;;;;;;;;;21.40;97.60;;;;;;4950012;29;20005;-80
2021/03/29 07:25:31;;;;;;;;;;;21.40;97.70;;;;;;4948988;29;20404;-79
2021/03/29 07:28:01;;;;;;;;;;;21.40;97.70;;;;;;4953213;29;19914;-79
2021/03/29 07:30:46;;;;;;;;;;;21.30;98.00;;;;;;4938980;29;20027;-78
2021/03/29 07:33:16;;;;;;;;;;;21.30;97.90;;;;;;4951904;29;20403;-79
2021/03/29 07:35:44;;;;;;;;;;;21.30;98.00;;;;;;4934447;29;19914;-79
2021/03/29 07:38:11;;;;;;;;;;;21.20;98.30;;;;;;4932805;29;19925;-81
2021/03/29 07:40:42;;;;;;;;;;;21.20;98.10;;;;;;4952080;29;20062;-80
2021/03/29 07:43:13;;;;;;;;;;;21.20;98.10;;;;;;4933492;29;20301;-79
2021/03/29 07:45:49;;;;;;;;;;;21.20;98.00;;;;;;4950684;28;19925;-80
2021/03/29 07:48:31;;;;;;;;;;;21.20;97.90;;;;;;4954491;29;19914;-79
2021/03/29 07:50:59;;;;;;;;;;;21.20;97.80;;;;;;4954410;29;19923;-82
2021/03/29 07:53:52;;;;;;;;;;;21.10;97.60;;;;;;4954970;29;19914;-79
2021/03/29 07:56:31;;;;;;;;;;;21.10;97.60;;;;;;4956018;29;20013;-78
2021/03/29 07:58:57;;;;;;;;;;;21.10;97.70;;;;;;4939084;29;19972;-79
2021/03/29 08:01:24;;;;;;;;;;;21.00;97.60;;;;;;4955813;29;19914;-78
2021/03/29 08:04:30;;;;;;;;;;;21.00;97.70;;;;;;4957682;29;20321;-84
2021/03/29 08:07:04;;;;;;;;;;;21.00;97.70;;;;;;4954936;29;19921;-84
2021/03/29 08:09:43;;;;;;;;;;;21.00;97.90;;;;;;4916352;29;19958;-81
2021/03/29 08:12:23;;;;;;;;;;;21.00;97.90;;;;;;4901927;29;19915;-79
2021/03/29 08:14:53;;;;;;;;;;;21.00;98.80;;;;;;4901863;29;19922;-82
2021/03/29 08:17:54;;;;;;;;;;;21.00;98.00;;;;;;4924028;29;20703;-82
2021/03/29 08:20:23;;;;;;;;;;;20.90;97.90;;;;;;4913410;29;19999;-80
2021/03/29 08:23:08;;;;;;;;;;;20.90;97.90;;;;;;4907848;29;19918;-80
2021/03/29 08:25:35;;;;;;;;;;;20.90;97.40;;;;;;4925617;29;20274;-81
2021/03/29 08:28:01;;;;;;;;;;;20.80;97.60;;;;;;4916016;29;19967;-80
2021/03/29 08:30:41;;;;;;;;;;;20.90;97.70;;;;;;4908893;29;19915;-80
2021/03/29 08:33:14;;;;;;;;;;;20.80;97.90;;;;;;4914301;29;19930;-80
2021/03/29 08:35:44;;;;;;;;;;;20.80;98.10;;;;;;4917568;29;19989;-80
2021/03/29 08:38:14;;;;;;;;;;;20.80;98.50;;;;;;4925482;29;20009;-79
2021/03/29 08:40:40;;;;;;;;;;;20.80;98.70;;;;;;4913277;29;19979;-79
2021/03/29 08:43:08;;;;;;;;;;;20.70;99.00;;;;;;4920086;29;20413;-81
2021/03/29 08:45:37;;;;;;;;;;;20.70;99.30;;;;;;4914933;29;20013;-80
2021/03/29 08:48:18;;;;;;;;;;;20.70;99.60;;;;;;4913801;29;19930;-82
2021/03/29 08:50:48;;;;;;;;;;;20.70;99.70;;;;;;4898547;29;20342;-80
2021/03/29 08:53:15;;;;;;;;;;;20.70;99.90;;;;;;4931926;29;19922;-82
2021/03/29 08:55:51;;;;;;;;;;;20.70;99.90;;;;;;4940681;29;19914;-80
2021/03/29 08:58:19;;;;;;;;;;;20.70;99.90;;;;;;4956171;28;20389;-81
2021/03/29 09:00:46;;;;;;;;;;;20.70;99.90;;;;;;4956201;29;20114;-84
2021/03/29 09:03:16;;;;;;;;;;;20.70;99.90;;;;;;4955532;28;19926;-82
2021/03/29 09:05:45;;;;;;;;;;;20.70;99.90;;;;;;4939226;29;20387;-81
2021/03/29 09:08:16;;;;;;;;;;;20.70;99.90;;;;;;4956522;29;19914;-83
2021/03/29 09:10:45;;;;;;;;;;;20.70;99.90;;;;;;4956055;29;19914;-81
2021/03/29 09:13:15;;;;;;;;;;;20.70;99.90;;;;;;4941579;29;20382;-82
2021/03/29 09:15:49;;;;;;;;;;;20.70;99.90;;;;;;4956445;29;19914;-83
2021/03/29 09:18:17;;;;;;;;;;;20.70;99.90;;;;;;4946877;29;20369;-83
2021/03/29 09:20:45;;;;;;;;;;;20.60;99.90;;;;;;4956451;29;19910;-83
2021/03/29 09:23:14;;;;;;;;;;;20.60;99.90;;;;;;4954830;29;20369;-82
2021/03/29 09:25:44;;;;;;;;;;;20.60;99.90;;;;;;4934947;29;19923;-82
2021/03/29 09:30:51;;;;;;;;;;;20.50;99.90;;;;;;4956208;29;20266;-83
2021/03/29 09:33:20;;;;;;;;;;;20.50;99.90;;;;;;4937099;29;20017;-83
2021/03/29 09:35:49;;;;;;;;;;;20.50;99.90;;;;;;4955928;29;19934;-82
2021/03/29 09:38:38;;;;;;;;;;;20.50;99.90;;;;;;4955519;29;19961;-82
2021/03/29 09:41:15;;;;;;;;;;;20.50;99.90;;;;;;4955997;29;19957;-81
2021/03/29 09:43:46;;;;;;;;;;;20.50;99.90;;;;;;4938164;29;20361;-80
2021/03/29 09:46:16;;;;;;;;;;;20.50;99.90;;;;;;4955982;29;20376;-81
2021/03/29 09:48:46;;;;;;;;;;;20.50;99.90;;;;;;4955719;29;19937;-80
2021/03/29 09:51:23;;;;;;;;;;;20.50;99.90;;;;;;4936029;29;20485;-80
2021/03/29 09:53:52;;;;;;;;;;;20.50;99.90;;;;;;4939237;29;19930;-78
2021/03/29 09:56:36;;;;;;;;;;;20.50;99.90;;;;;;4936187;29;19922;-81
2021/03/29 09:59:03;;;;;;;;;;;20.50;99.90;;;;;;4944417;29;19954;-81
2021/03/29 10:01:42;;;;;;;;;;;20.50;99.90;;;;;;4953874;29;19966;-83
2021/03/29 10:04:13;;;;;;;;;;;20.50;99.90;;;;;;4952789;29;19910;-81
2021/03/29 10:06:49;;;;;;;;;;;20.50;99.90;;;;;;4959980;29;19961;-82
2021/03/29 10:09:28;;;;;;;;;;;20.50;99.90;;;;;;4952422;28;19911;-81
2021/03/29 10:11:55;;;;;;;;;;;20.50;99.90;;;;;;4934264;29;20048;-80
2021/03/29 10:14:31;;;;;;;;;;;20.50;99.90;;;;;;4947475;29;19922;-80
2021/03/29 10:16:57;;;;;;;;;;;20.50;99.90;;;;;;4954362;29;19993;-79
2021/03/29 10:19:44;;;;;;;;;;;20.50;99.90;;;;;;4955380;29;20357;-82
2021/03/29 10:22:14;;;;;;;;;;;20.50;99.90;;;;;;4937856;29;19914;-80
2021/03/29 10:25:06;;;;;;;;;;;20.40;99.90;;;;;;4953951;29;20284;-80
2021/03/29 10:27:52;;;;;;;;;;;20.40;99.90;;;;;;4954024;29;19921;-81
2021/03/29 10:30:27;;;;;;;;;;;20.50;99.90;;;;;;4955016;29;19914;-78
2021/03/29 10:32:54;;;;;;;;;;;20.40;99.90;;;;;;4954983;29;20285;-80
2021/03/29 10:35:23;;;;;;;;;;;20.40;99.90;;;;;;4955357;29;19918;-81
2021/03/29 10:37:50;;;;;;;;;;;20.40;99.90;;;;;;4937897;29;19942;-81
2021/03/29 10:40:21;;;;;;;;;;;20.40;99.90;;;;;;4952902;29;19983;-79
2021/03/29 10:42:54;;;;;;;;;;;20.40;99.90;;;;;;4955348;29;19914;-81
2021/03/29 10:45:21;;;;;;;;;;;20.40;99.90;;;;;;4953058;29;19918;-79
2021/03/29 10:47:48;;;;;;;;;;;20.50;99.90;;;;;;4954317;29;19953;-79
2021/03/29 10:50:20;;;;;;;;;;;20.50;99.90;;;;;;4940407;29;20005;-81
2021/03/29 10:52:50;;;;;;;;;;;20.60;99.90;;;;;;4954853;28;20293;-80
2021/03/29 10:55:16;;;;;;;;;;;20.30;99.90;;;;;;4953242;29;20332;-79
2021/03/29 10:57:43;;;;;;;;;;;19.50;99.90;;;;;;4955333;29;19910;-79
2021/03/29 11:00:15;;;;;;;;;;;18.90;99.90;;;;;;4955029;29;19939;-77
2021/03/29 11:02:42;;;;;;;;;;;18.60;99.90;;;;;;4955249;29;19944;-76
2021/03/29 11:05:09;;;;;;;;;;;18.30;99.90;;;;;;4937049;29;20002;-77
2021/03/29 11:07:36;;;;;;;;;;;18.30;99.90;;;;;;4954663;29;19919;-77
2021/03/29 11:10:03;;;;;;;;;;;18.30;99.90;;;;;;4954230;29;19969;-77
2021/03/29 11:12:30;;;;;;;;;;;18.30;99.90;;;;;;4954438;29;20364;-76
2021/03/29 11:14:56;;;;;;;;;;;18.30;99.90;;;;;;4954477;29;19914;-79
2021/03/29 11:17:26;;;;;;;;;;;18.40;99.90;;;;;;4954583;29;19970;-77
2021/03/29 11:19:53;;;;;;;;;;;18.50;99.90;;;;;;4953569;29;20304;-78
2021/03/29 11:22:20;;;;;;;;;;;18.40;99.90;;;;;;4954458;29;19914;-78
2021/03/29 11:24:46;;;;;;;;;;;18.40;99.90;;;;;;4952021;29;19914;-78
2021/03/29 11:27:13;;;;;;;;;;;18.40;99.90;;;;;;4954381;29;19915;-78
2021/03/29 11:29:40;;;;;;;;;;;18.40;99.90;;;;;;4954272;29;20418;-76
2021/03/29 11:32:07;;;;;;;;;;;18.40;99.90;;;;;;4954771;29;19962;-78
2021/03/29 11:34:33;;;;;;;;;;;18.30;99.90;;;;;;4954356;29;19914;-77
2021/03/29 11:37:00;;;;;;;;;;;18.20;99.90;;;;;;4933544;29;19914;-78
2021/03/29 11:39:27;;;;;;;;;;;18.00;99.90;;;;;;4952591;29;20312;-79
2021/03/29 11:41:53;;;;;;;;;;;18.00;99.90;;;;;;4954745;29;19965;-78
2021/03/29 11:44:20;;;;;;;;;;;18.00;99.90;;;;;;4953604;29;19914;-78
2021/03/29 11:46:46;;;;;;;;;;;18.00;99.90;;;;;;4954618;29;20364;-78
2021/03/29 11:49:13;;;;;;;;;;;18.10;99.90;;;;;;4937251;29;20274;-81
2021/03/29 11:51:40;;;;;;;;;;;18.10;99.90;;;;;;4954256;29;19915;-78
2021/03/29 11:54:07;;;;;;;;;;;18.10;99.90;;;;;;4952437;29;19964;-80
2021/03/29 11:56:37;;;;;;;;;;;18.10;99.90;;;;;;4933569;29;19919;-79
2021/03/29 11:59:06;;;;;;;;;;;18.10;99.90;;;;;;4944115;29;19971;-79
2021/03/29 12:01:50;;;;;;;;;;;18.10;99.90;;;;;;4952986;29;19926;-82
2021/03/29 12:04:26;;;;;;;;;;;18.10;99.90;;;;;;4953959;29;19969;-78
2021/03/29 12:07:04;;;;;;;;;;;18.10;99.90;;;;;;4937288;29;19914;-83
2021/03/29 12:09:47;;;;;;;;;;;18.00;99.90;;;;;;4953820;29;19915;-85
2021/03/29 12:12:14;;;;;;;;;;;18.00;99.90;;;;;;4952048;29;19923;-78
2021/03/29 12:14:41;;;;;;;;;;;18.10;99.90;;;;;;4954053;29;19914;-79
2021/03/29 12:17:11;;;;;;;;;;;18.00;99.90;;;;;;4936657;29;19970;-80
2021/03/29 12:19:38;;;;;;;;;;;18.10;99.90;;;;;;4953054;29;19925;-82
2021/03/29 12:22:12;;;;;;;;;;;18.10;99.90;;;;;;4954613;29;19910;-78
2021/03/29 12:24:41;;;;;;;;;;;18.10;99.90;;;;;;4953968;29;19969;-78
2021/03/29 12:27:08;;;;;;;;;;;18.10;99.90;;;;;;4954226;29;19963;-81
2021/03/29 12:29:41;;;;;;;;;;;18.10;99.90;;;;;;4953490;29;20011;-83
2021/03/29 12:32:14;;;;;;;;;;;18.10;99.90;;;;;;4955561;28;19926;-80
2021/03/29 12:34:47;;;;;;;;;;;18.10;99.90;;;;;;4957379;29;19921;-81
2021/03/29 12:37:16;;;;;;;;;;;18.10;99.90;;;;;;4936404;29;19914;-80
2021/03/29 12:42:21;;;;;;;;;;;18.20;99.90;;;;;;4957864;29;20280;-79
2021/03/29 12:44:48;;;;;;;;;;;18.20;99.90;;;;;;4939894;29;19918;-78
2021/03/29 12:47:17;;;;;;;;;;;18.10;99.90;;;;;;4936784;29;20362;-80
2021/03/29 12:49:44;;;;;;;;;;;18.10;99.90;;;;;;4948761;29;19914;-80
2021/03/29 12:52:11;;;;;;;;;;;18.10;99.90;;;;;;4940009;29;19926;-78
2021/03/29 12:54:38;;;;;;;;;;;17.90;99.90;;;;;;4951999;29;19914;-79
2021/03/29 12:57:05;;;;;;;;;;;17.90;99.90;;;;;;4921133;29;19919;-81
2021/03/29 12:59:32;;;;;;;;;;;17.90;99.90;;;;;;4956165;29;19914;-82
2021/03/29 13:01:59;;;;;;;;;;;17.80;99.90;;;;;;4956167;29;19922;-78
2021/03/29 13:04:35;;;;;;;;;;;17.80;99.90;;;;;;4956435;29;20321;-80
2021/03/29 13:12:37;;;;;;;;;;;17.70;99.90;;;;;;4905039;29;19938;-79
2021/03/29 13:15:05;;;;;;;;;;;17.60;99.90;;;;;;4947224;29;20437;-77
2021/03/29 13:17:42;;;;;;;;;;;17.70;99.90;;;;;;4956251;29;19929;-79
2021/03/29 13:20:19;;;;;;;;;;;17.60;99.90;;;;;;4939498;29;19954;-77
2021/03/29 13:22:54;;;;;;;;;;;17.60;99.90;;;;;;4939470;29;19968;-80
2021/03/29 13:25:22;;;;;;;;;;;17.50;99.90;;;;;;4955483;29;19921;-79
2021/03/29 13:27:49;;;;;;;;;;;17.50;99.90;;;;;;4956694;29;19954;-76
2021/03/29 13:30:17;;;;;;;;;;;17.50;99.90;;;;;;4956763;29;19926;-78
2021/03/29 13:32:44;;;;;;;;;;;17.40;99.90;;;;;;4956127;29;19977;-78
2021/03/29 13:35:11;;;;;;;;;;;17.50;99.90;;;;;;4956699;29;20281;-77
2021/03/29 13:37:43;;;;;;;;;;;17.50;99.90;;;;;;4936217;29;19910;-81
2021/03/29 13:40:12;;;;;;;;;;;17.60;99.90;;;;;;4951316;29;19969;-77
2021/03/29 13:42:39;;;;;;;;;;;17.70;99.90;;;;;;4956035;28;19914;-76
2021/03/29 13:45:26;;;;;;;;;;;17.70;99.90;;;;;;4955872;29;19976;-78
2021/03/29 13:47:53;;;;;;;;;;;17.70;99.90;;;;;;4939178;29;19915;-86
2021/03/29 13:50:21;;;;;;;;;;;17.80;99.90;;;;;;4956591;29;19964;-78
2021/03/29 13:52:48;;;;;;;;;;;17.80;99.90;;;;;;4956530;29;19923;-77
2021/03/29 13:55:34;;;;;;;;;;;17.70;99.90;;;;;;4956173;29;19910;-80
2021/03/29 13:58:00;;;;;;;;;;;17.70;99.90;;;;;;4955657;29;20266;-77
2021/03/29 14:00:27;;;;;;;;;;;17.70;99.90;;;;;;4956541;29;19921;-77
2021/03/29 14:02:55;;;;;;;;;;;17.80;99.90;;;;;;4954928;29;19919;-78
2021/03/29 14:05:29;;;;;;;;;;;17.80;99.90;;;;;;4955973;29;19961;-77
2021/03/29 14:07:56;;;;;;;;;;;17.80;99.90;;;;;;4955837;29;20009;-78
2021/03/29 14:10:25;;;;;;;;;;;17.70;99.90;;;;;;4954717;29;20292;-80
2021/03/29 14:12:53;;;;;;;;;;;17.80;99.90;;;;;;4956261;29;19958;-77
2021/03/29 14:15:20;;;;;;;;;;;17.80;99.90;;;;;;4955784;29;20269;-79
2021/03/29 14:17:46;;;;;;;;;;;17.80;99.90;;;;;;4941675;29;20281;-76
2021/03/29 14:20:13;;;;;;;;;;;17.80;99.90;;;;;;4954445;29;19981;-78
2021/03/29 14:22:40;;;;;;;;;;;17.90;99.90;;;;;;4955676;28;19910;-80
2021/03/29 14:25:09;;;;;;;;;;;17.90;99.90;;;;;;4955971;28;20004;-79
2021/03/29 14:27:36;;;;;;;;;;;17.90;99.90;;;;;;4955855;29;19915;-77
2021/03/29 14:30:04;;;;;;;;;;;17.90;99.90;;;;;;4938523;29;19911;-78
2021/03/29 14:32:35;;;;;;;;;;;17.90;99.90;;;;;;4955757;29;20348;-77
2021/03/29 14:35:10;;;;;;;;;;;17.90;99.90;;;;;;4955817;29;19918;-80
2021/03/29 14:45:52;;;;;;;;;;;17.90;99.90;;;;;;4955895;29;19966;-77
2021/03/29 14:48:20;;;;;;;;;;;18.00;99.90;;;;;;4955782;29;19957;-77
2021/03/29 14:50:46;;;;;;;;;;;18.00;99.90;;;;;;4955734;29;19910;-78
2021/03/29 14:53:13;;;;;;;;;;;17.90;99.90;;;;;;4955490;29;19969;-80
2021/03/29 14:55:40;;;;;;;;;;;17.90;99.90;;;;;;4954394;28;19990;-76